createdAt,value
2022-10-09T00:02:11.178Z,0.20
2022-10-09T00:05:15.200Z,0.19
2022-10-09T00:08:18.196Z,0.28
2022-10-09T00:11:24.986Z,0.41
2022-10-09T00:14:28.698Z,0.40
2022-10-09T00:17:32.940Z,0.51
2022-10-09T00:20:44.540Z,0.75
2022-10-09T00:23:49.381Z,0.96
2022-10-09T00:26:52.436Z,1.16
2022-10-09T00:29:56.354Z,1.34
2022-10-09T00:32:59.320Z,1.58
2022-10-09T00:36:08.200Z,1.73
2022-10-09T00:39:11.039Z,2.00
2022-10-09T00:42:15.049Z,2.35
2022-10-09T00:45:22.450Z,2.63
2022-10-09T00:48:26.644Z,3.25
2022-10-09T00:51:32.274Z,3.94
2022-10-09T00:54:40.781Z,4.53
2022-10-09T00:57:44.973Z,4.96
2022-10-09T01:00:49.195Z,5.33
2022-10-09T01:03:53.213Z,5.74
2022-10-09T01:07:35.776Z,6.24
2022-10-09T01:11:01.337Z,6.52
2022-10-09T01:14:26.813Z,6.62
2022-10-09T01:17:39.717Z,6.96
2022-10-09T01:20:54.665Z,7.38
2022-10-09T01:24:04.347Z,7.69
2022-10-09T01:27:12.972Z,7.63
2022-10-09T01:30:17.142Z,7.73
2022-10-09T01:33:20.877Z,8.17
2022-10-09T01:36:26.251Z,8.68
2022-10-09T01:39:31.421Z,9.35
2022-10-09T01:42:35.986Z,9.57
2022-10-09T01:45:42.266Z,9.82
2022-10-09T01:48:51.045Z,10.28
2022-10-09T01:52:00.606Z,11.04
2022-10-09T01:55:04.635Z,11.14
2022-10-09T01:58:19.707Z,11.00
2022-10-09T02:01:37.737Z,11.23
2022-10-09T02:04:44.239Z,10.92
2022-10-09T02:07:48.760Z,10.27
2022-10-09T02:10:57.285Z,10.61
2022-10-09T02:14:01.160Z,10.32
2022-10-09T02:17:15.603Z,10.04
2022-10-09T02:20:28.992Z,10.47
2022-10-09T02:23:33.784Z,11.36
2022-10-09T02:26:38.871Z,12.52
2022-10-09T02:29:44.597Z,14.29
2022-10-09T02:32:54.330Z,15.37
2022-10-09T02:35:58.160Z,15.99
2022-10-09T02:39:03.232Z,16.66
2022-10-09T02:42:07.007Z,17.03
2022-10-09T02:45:11.248Z,17.21
2022-10-09T02:48:14.988Z,17.61
2022-10-09T02:51:19.124Z,18.31
2022-10-09T02:54:22.027Z,18.18
2022-10-09T02:57:25.363Z,17.89
2022-10-09T03:00:28.984Z,18.40
2022-10-09T03:03:32.711Z,18.80
2022-10-09T03:06:35.821Z,19.08
2022-10-09T03:09:39.837Z,19.45
2022-10-09T03:12:42.859Z,20.01
2022-10-09T03:15:46.434Z,19.60
2022-10-09T03:18:51.577Z,19.29
2022-10-09T03:21:55.781Z,19.41
2022-10-09T03:24:59.501Z,20.07
2022-10-09T03:28:03.144Z,20.40
2022-10-09T03:31:07.371Z,19.30
2022-10-09T03:34:12.397Z,18.69
2022-10-09T03:37:16.042Z,18.86
2022-10-09T03:40:19.763Z,18.77
2022-10-09T03:43:23.054Z,18.83
2022-10-09T03:46:26.137Z,20.25
2022-10-09T03:49:29.913Z,19.50
2022-10-09T03:52:34.331Z,19.39
2022-10-09T03:55:37.587Z,19.25
2022-10-09T03:58:40.909Z,19.78
2022-10-09T04:01:43.994Z,21.25
2022-10-09T04:04:47.468Z,20.85
2022-10-09T04:07:51.169Z,21.21
2022-10-09T04:11:01.155Z,20.55
2022-10-09T04:14:04.955Z,16.58
2022-10-09T04:17:09.131Z,15.73
2022-10-09T04:20:12.105Z,15.12
2022-10-09T04:23:15.870Z,16.26
2022-10-09T04:26:20.113Z,17.66
2022-10-09T04:29:23.341Z,20.26
2022-10-09T04:32:26.323Z,18.95
2022-10-09T04:35:29.262Z,16.13
2022-10-09T04:38:33.497Z,13.35
2022-10-09T04:41:38.544Z,12.28
2022-10-09T04:44:43.116Z,11.18
2022-10-09T04:47:46.515Z,10.51
2022-10-09T04:50:50.890Z,10.52
2022-10-09T04:54:00.393Z,10.38
2022-10-09T04:57:04.500Z,10.32
2022-10-09T05:00:08.809Z,10.30
2022-10-09T05:03:12.828Z,10.15
2022-10-09T05:06:18.108Z,9.89
2022-10-09T05:09:21.913Z,9.79
2022-10-09T05:12:26.026Z,9.83
2022-10-09T05:15:29.144Z,9.95
2022-10-09T05:18:33.488Z,9.95
2022-10-09T05:21:37.601Z,9.96
2022-10-09T05:24:41.933Z,10.25
2022-10-09T05:27:46.293Z,10.63
2022-10-09T05:30:50.299Z,13.53
2022-10-09T05:33:54.887Z,18.21
2022-10-09T05:36:58.980Z,21.28
2022-10-09T05:40:02.613Z,22.13
2022-10-09T05:43:06.219Z,23.48
2022-10-09T05:46:17.309Z,24.30
2022-10-09T05:49:20.830Z,24.37
2022-10-09T05:52:24.510Z,19.92
2022-10-09T05:55:29.080Z,17.67
2022-10-09T05:58:32.065Z,20.87
2022-10-09T06:01:39.041Z,24.35
2022-10-09T06:04:42.701Z,23.12
2022-10-09T06:07:47.462Z,19.02
2022-10-09T06:10:50.745Z,16.94
2022-10-09T06:13:54.123Z,18.07
2022-10-09T06:16:59.557Z,21.81
2022-10-09T06:20:02.725Z,23.12
2022-10-09T06:23:06.445Z,23.22
2022-10-09T06:26:14.410Z,21.58
2022-10-09T06:29:18.111Z,21.23
2022-10-09T06:32:21.717Z,20.70
2022-10-09T06:35:24.630Z,21.37
2022-10-09T06:38:28.599Z,19.97
2022-10-09T06:41:32.407Z,18.22
2022-10-09T06:44:35.333Z,19.53
2022-10-09T06:47:38.349Z,20.61
2022-10-09T06:50:41.254Z,17.99
2022-10-09T06:53:46.946Z,18.95
2022-10-09T06:56:50.578Z,19.86
2022-10-09T06:59:54.592Z,20.73
2022-10-09T07:02:58.053Z,19.71
2022-10-09T07:06:18.634Z,22.45
2022-10-09T07:09:21.887Z,20.92
2022-10-09T07:12:25.027Z,19.61
2022-10-09T07:15:28.783Z,20.94
2022-10-09T07:18:36.536Z,21.29
2022-10-09T07:21:43.785Z,22.12
2022-10-09T07:24:48.293Z,21.36
2022-10-09T07:27:52.265Z,20.83
2022-10-09T07:30:55.489Z,20.53
2022-10-09T07:33:59.112Z,19.98
2022-10-09T07:37:02.088Z,20.40
2022-10-09T07:40:06.588Z,19.83
2022-10-09T07:43:09.494Z,20.10
2022-10-09T07:46:15.152Z,20.75
2022-10-09T07:49:18.455Z,21.73
2022-10-09T07:52:22.124Z,23.16
2022-10-09T07:55:25.501Z,23.63
2022-10-09T07:58:29.672Z,22.36
2022-10-09T08:01:34.381Z,19.45
2022-10-09T08:04:38.483Z,17.47
2022-10-09T08:07:42.616Z,16.65
2022-10-09T08:10:46.217Z,19.68
2022-10-09T08:13:50.232Z,22.11
2022-10-09T08:16:53.180Z,21.11
2022-10-09T08:19:58.557Z,20.71
2022-10-09T08:23:02.293Z,21.69
2022-10-09T08:26:12.531Z,23.70
2022-10-09T08:29:17.358Z,22.56
2022-10-09T08:32:21.176Z,21.58
2022-10-09T08:35:24.541Z,22.84
2022-10-09T08:38:45.970Z,22.63
2022-10-09T08:41:53.939Z,22.95
2022-10-09T08:44:57.717Z,22.63
2022-10-09T08:48:23.062Z,22.52
2022-10-09T08:51:35.936Z,20.91
2022-10-09T08:54:40.754Z,19.01
2022-10-09T08:57:47.755Z,18.10
2022-10-09T09:00:55.422Z,16.98
2022-10-09T09:04:01.741Z,15.84
2022-10-09T09:07:17.959Z,14.66
2022-10-09T09:10:35.526Z,13.60
2022-10-09T09:13:44.803Z,13.26
2022-10-09T09:16:58.243Z,13.10
2022-10-09T09:20:28.613Z,12.82
2022-10-09T09:23:41.114Z,12.42
2022-10-09T09:26:48.361Z,11.98
2022-10-09T09:30:04.613Z,11.53
2022-10-09T09:33:08.626Z,11.18
2022-10-09T09:36:22.986Z,11.09
2022-10-09T09:40:24.159Z,10.97
2022-10-09T09:42:59.029Z,10.66
2022-10-09T09:46:15.727Z,10.51
2022-10-09T09:49:28.225Z,10.34
2022-10-09T09:52:38.299Z,10.16
2022-10-09T09:55:43.013Z,10.02
2022-10-09T09:58:54.005Z,9.91
2022-10-09T10:02:10.407Z,9.83
2022-10-09T10:05:28.457Z,9.69
2022-10-09T10:08:34.423Z,9.51
2022-10-09T10:11:38.434Z,9.37
2022-10-09T10:14:51.091Z,9.32
2022-10-09T10:18:13.415Z,9.20
2022-10-09T10:21:19.674Z,9.03
2022-10-09T10:24:29.939Z,8.97
2022-10-09T10:27:43.232Z,8.88
2022-10-09T10:30:48.998Z,8.79
2022-10-09T10:33:57.131Z,8.71
2022-10-09T10:37:24.204Z,8.66
2022-10-09T10:40:33.466Z,8.58
2022-10-09T10:43:44.584Z,8.55
2022-10-09T10:47:02.502Z,8.47
2022-10-09T10:50:10.654Z,8.33
2022-10-09T10:53:41.807Z,8.28
2022-10-09T10:56:52.053Z,8.13
2022-10-09T11:00:06.561Z,8.07
2022-10-09T11:03:28.135Z,7.98
2022-10-09T11:06:44.924Z,7.78
2022-10-09T11:10:23.698Z,7.83
2022-10-09T11:13:47.438Z,7.78
2022-10-09T11:17:07.405Z,7.65
2022-10-09T11:20:45.185Z,7.58
2022-10-09T11:24:14.587Z,7.47
2022-10-09T11:27:30.776Z,7.41
2022-10-09T11:30:42.518Z,7.23
2022-10-09T11:33:58.608Z,7.10
2022-10-09T11:37:03.272Z,7.01
2022-10-09T11:40:30.477Z,7.07
2022-10-09T11:43:36.677Z,7.07
2022-10-09T11:46:51.446Z,6.98
2022-10-09T11:50:36.807Z,6.64
2022-10-09T11:53:40.657Z,6.26
2022-10-09T11:56:55.322Z,6.18
2022-10-09T12:00:08.010Z,6.08
2022-10-09T12:03:37.028Z,5.89
2022-10-09T12:06:49.820Z,5.66
2022-10-09T12:09:59.304Z,5.57
2022-10-09T12:13:06.936Z,5.26
2022-10-09T12:16:42.466Z,5.06
2022-10-09T12:19:46.177Z,4.91
2022-10-09T12:23:24.777Z,4.87
2022-10-09T12:26:24.847Z,4.76
2022-10-09T12:29:40.113Z,4.83
2022-10-09T12:32:46.841Z,4.81
2022-10-09T12:36:20.075Z,4.75
2022-10-09T12:39:24.982Z,4.56
2022-10-09T12:42:28.065Z,4.37
2022-10-09T12:45:33.057Z,4.24
2022-10-09T12:48:40.620Z,4.17
2022-10-09T12:51:56.652Z,4.13
2022-10-09T12:55:01.538Z,3.99
2022-10-09T12:58:17.005Z,4.01
2022-10-09T13:01:21.331Z,3.94
2022-10-09T13:04:35.125Z,3.94
2022-10-09T13:07:38.168Z,3.82
2022-10-09T13:10:42.647Z,3.75
2022-10-09T13:13:56.139Z,3.70
2022-10-09T13:16:59.648Z,3.68
2022-10-09T13:20:17.848Z,3.60
2022-10-09T13:23:33.732Z,3.47
2022-10-09T13:26:39.168Z,3.49
2022-10-09T13:29:44.134Z,3.54
2022-10-09T13:32:47.161Z,3.47
2022-10-09T13:35:50.163Z,3.35
2022-10-09T13:38:53.133Z,3.30
2022-10-09T13:41:58.409Z,3.26
2022-10-09T13:45:02.184Z,3.11
2022-10-09T13:48:05.955Z,3.03
2022-10-09T13:51:09.632Z,2.95
2022-10-09T13:54:13.071Z,2.96
2022-10-09T13:57:15.993Z,2.89
2022-10-09T14:00:19.134Z,2.92
2022-10-09T14:03:22.841Z,2.99
2022-10-09T14:06:25.911Z,2.88
2022-10-09T14:09:30.284Z,2.92
2022-10-09T14:12:33.208Z,2.87
2022-10-09T14:15:40.384Z,2.81
2022-10-09T14:18:43.357Z,2.74
2022-10-09T14:21:47.478Z,2.69
2022-10-09T14:24:51.545Z,2.66
2022-10-09T14:27:54.603Z,2.60
2022-10-09T14:30:58.020Z,2.50
2022-10-09T14:34:01.410Z,2.33
2022-10-09T14:37:18.581Z,2.38
2022-10-09T14:40:28.135Z,2.38
2022-10-09T14:43:32.299Z,2.41
2022-10-09T14:46:38.287Z,2.39
2022-10-09T14:49:41.406Z,2.33
2022-10-09T14:52:45.342Z,2.18
2022-10-09T14:55:49.046Z,2.06
2022-10-09T14:58:52.900Z,1.95
2022-10-09T15:01:56.877Z,2.00
2022-10-09T15:04:59.837Z,2.06
2022-10-09T15:08:03.370Z,2.03
2022-10-09T15:11:06.979Z,2.01
2022-10-09T15:14:10.893Z,1.97
2022-10-09T15:17:14.285Z,1.99
2022-10-09T15:20:17.669Z,1.91
2022-10-09T15:23:21.188Z,1.82
2022-10-09T15:26:29.064Z,1.69
2022-10-09T15:29:32.772Z,1.59
2022-10-09T15:32:37.911Z,1.62
2022-10-09T15:35:41.633Z,1.56
2022-10-09T15:38:45.889Z,1.53
2022-10-09T15:41:49.537Z,1.50
2022-10-09T15:44:53.763Z,1.41
2022-10-09T15:47:56.696Z,1.38
2022-10-09T15:51:07.435Z,1.45
2022-10-09T15:54:12.429Z,1.38
2022-10-09T15:57:15.821Z,1.31
2022-10-09T16:00:18.806Z,1.25
2022-10-09T16:03:22.139Z,1.28
2022-10-09T16:06:26.172Z,1.21
2022-10-09T16:09:35.692Z,1.21
2022-10-09T16:12:38.681Z,1.19
2022-10-09T16:15:43.101Z,1.24
2022-10-09T16:18:46.382Z,1.18
2022-10-09T16:21:50.848Z,1.09
2022-10-09T16:24:54.595Z,1.01
2022-10-09T16:27:57.986Z,0.84
2022-10-09T16:31:01.434Z,0.72
2022-10-09T16:34:06.566Z,0.75
2022-10-09T16:37:10.544Z,0.78
2022-10-09T16:40:13.996Z,0.74
2022-10-09T16:43:17.576Z,0.69
2022-10-09T16:46:31.985Z,0.53
2022-10-09T16:49:35.829Z,0.44
2022-10-09T16:52:39.620Z,0.43
2022-10-09T16:55:42.587Z,0.42
2022-10-09T16:58:47.431Z,0.47
2022-10-09T17:01:50.745Z,0.36
2022-10-09T17:04:54.523Z,0.17
2022-10-09T17:07:58.209Z,0.10
2022-10-09T17:11:02.322Z,0.05
2022-10-09T17:14:06.206Z,0.02
2022-10-09T17:17:11.884Z,0.01
2022-10-09T17:20:14.821Z,-0.02
2022-10-09T17:23:18.503Z,-0.12
2022-10-09T17:26:23.088Z,-0.15
2022-10-09T17:29:27.594Z,-0.20
2022-10-09T17:32:30.633Z,-0.21
2022-10-09T17:35:34.662Z,-0.21
2022-10-09T17:38:38.284Z,-0.34
2022-10-09T17:41:44.001Z,-0.39
2022-10-09T17:44:47.021Z,-0.33
2022-10-09T17:47:50.186Z,-0.28
2022-10-09T17:50:54.609Z,-0.31
2022-10-09T17:54:00.386Z,-0.36
2022-10-09T17:57:06.782Z,-0.34
2022-10-09T18:00:10.943Z,-0.36
2022-10-09T18:03:14.447Z,-0.35
2022-10-09T18:06:19.209Z,-0.35
2022-10-09T18:09:22.853Z,-0.36
2022-10-09T18:12:25.986Z,-0.36
2022-10-09T18:15:29.706Z,-0.39
2022-10-09T18:18:33.500Z,-0.47
2022-10-09T18:21:36.563Z,-0.45
2022-10-09T18:24:39.906Z,-0.45
2022-10-09T18:27:42.992Z,-0.43
2022-10-09T18:30:46.777Z,-0.50
2022-10-09T18:33:51.277Z,-0.62
2022-10-09T18:36:55.679Z,-0.73
2022-10-09T18:39:58.616Z,-0.82
2022-10-09T18:43:01.726Z,-0.92
2022-10-09T18:46:04.826Z,-0.97
2022-10-09T18:49:10.404Z,-0.95
2022-10-09T18:52:14.836Z,-0.94
2022-10-09T18:55:19.825Z,-1.04
2022-10-09T18:58:23.457Z,-1.04
2022-10-09T19:01:26.439Z,-1.09
2022-10-09T19:04:30.343Z,-1.12
2022-10-09T19:07:33.794Z,-1.25
2022-10-09T19:10:36.985Z,-1.33
2022-10-09T19:13:41.870Z,-1.35
2022-10-09T19:16:45.056Z,-1.20
2022-10-09T19:19:48.102Z,-1.26
2022-10-09T19:22:51.765Z,-1.26
2022-10-09T19:25:57.880Z,-1.23
2022-10-09T19:29:01.011Z,-1.20
2022-10-09T19:32:04.954Z,-1.15
2022-10-09T19:35:08.535Z,-1.20
2022-10-09T19:38:11.496Z,-1.21
2022-10-09T19:41:16.491Z,-1.11
2022-10-09T19:44:20.219Z,-1.08
2022-10-09T19:47:24.209Z,-1.14
2022-10-09T19:50:28.265Z,-1.24
2022-10-09T19:53:31.955Z,-1.30
2022-10-09T19:56:37.167Z,-1.29
2022-10-09T19:59:40.496Z,-1.34
2022-10-09T20:02:44.554Z,-1.39
2022-10-09T20:05:48.281Z,-1.46
2022-10-09T20:08:52.579Z,-1.48
2022-10-09T20:11:55.808Z,-1.34
2022-10-09T20:14:59.092Z,-1.33
2022-10-09T20:18:02.834Z,-1.34
2022-10-09T20:21:06.533Z,-1.33
2022-10-09T20:24:11.149Z,-1.30
2022-10-09T20:27:15.247Z,-1.29
2022-10-09T20:30:18.259Z,-1.27
2022-10-09T20:33:21.967Z,-1.30
2022-10-09T20:36:28.883Z,-1.30
2022-10-09T20:39:34.605Z,-1.39
2022-10-09T20:42:38.396Z,-1.38
2022-10-09T20:45:43.800Z,-1.48
2022-10-09T20:48:47.136Z,-1.51
2022-10-09T20:51:51.495Z,-1.56
2022-10-09T20:54:54.502Z,-1.55
2022-10-09T20:57:58.680Z,-1.49
2022-10-09T21:01:04.079Z,-1.54
2022-10-09T21:04:07.712Z,-1.60
2022-10-09T21:07:11.320Z,-1.61
2022-10-09T21:10:15.638Z,-1.66
2022-10-09T21:13:19.342Z,-1.67
2022-10-09T21:16:25.234Z,-1.66
2022-10-09T21:19:29.583Z,-1.67
2022-10-09T21:22:34.198Z,-1.65
2022-10-09T21:25:38.411Z,-1.65
2022-10-09T21:28:42.257Z,-1.68
2022-10-09T21:31:45.663Z,-1.95
2022-10-09T21:34:51.436Z,-2.22
2022-10-09T21:37:54.695Z,-2.29
2022-10-09T21:40:58.755Z,-2.30
2022-10-09T21:44:02.538Z,-2.30
2022-10-09T21:47:06.347Z,-2.30
2022-10-09T21:50:10.415Z,-2.22
2022-10-09T21:53:14.860Z,-2.30
2022-10-09T21:56:18.795Z,-2.26
2022-10-09T21:59:22.962Z,-2.24
2022-10-09T22:02:26.588Z,-2.12
2022-10-09T22:05:30.036Z,-2.18
2022-10-09T22:08:34.433Z,-2.29
2022-10-09T22:11:38.348Z,-2.30
2022-10-09T22:14:41.582Z,-2.28
2022-10-09T22:17:45.528Z,-2.37
2022-10-09T22:20:51.054Z,-2.38
2022-10-09T22:23:55.215Z,-2.35
2022-10-09T22:26:59.211Z,-2.40
2022-10-09T22:30:03.054Z,-2.43
2022-10-09T22:33:06.890Z,-2.51
2022-10-09T22:36:19.166Z,-2.50
2022-10-09T22:39:22.869Z,-2.40
2022-10-09T22:42:26.205Z,-2.46
2022-10-09T22:45:29.592Z,-2.29
2022-10-09T22:48:33.369Z,-2.25
2022-10-09T22:51:36.356Z,-2.34
2022-10-09T22:54:39.673Z,-2.38
2022-10-09T22:57:42.685Z,-2.27
2022-10-09T23:00:46.376Z,-2.24
2022-10-09T23:03:49.340Z,-2.19
2022-10-09T23:06:54.896Z,-2.07
2022-10-09T23:09:58.729Z,-2.08
2022-10-09T23:13:02.436Z,-2.28
2022-10-09T23:16:08.151Z,-2.33
2022-10-09T23:19:12.640Z,-2.39
2022-10-09T23:22:15.852Z,-2.45
2022-10-09T23:25:19.921Z,-2.50
2022-10-09T23:28:24.001Z,-2.38
2022-10-09T23:31:28.377Z,-2.44
2022-10-09T23:34:32.028Z,-2.35
2022-10-09T23:37:36.074Z,-2.26
2022-10-09T23:40:39.684Z,-2.09
2022-10-09T23:43:44.925Z,-2.01
2022-10-09T23:46:48.715Z,-1.95
2022-10-09T23:49:52.762Z,-1.88
2022-10-09T23:52:56.410Z,-1.83
2022-10-09T23:56:00.210Z,-1.87
2022-10-09T23:59:08.698Z,-1.96
